Time;durP1;ratioP1;P1;durP2;ratioP2;P2;SDS_P1;SDS_P2;PMS_P1;PMS_P2;Temp;Humidity;BMP_temperature;BMP_pressure;BME280_temperature;BME280_humidity;BME280_pressure;Samples;Min_cycle;Max_cycle;Signal;HPM_P1;HPM_P2
2022/07/27 00:00:06;;;;;;;5.40;4.40;;;;;;;16.90;85.94;99881.45;130781;1266;108779;-78
2022/07/27 00:03:37;;;;;;;5.90;4.10;;;;;;;16.87;86.35;99884.09;130577;1268;110300;-79
2022/07/27 00:06:43;;;;;;;5.00;3.80;;;;;;;16.83;86.53;99888.16;130419;1266;109107;-77
2022/07/27 00:09:48;;;;;;;7.30;4.40;;;;;;;16.78;86.36;99884.77;130430;1268;108285;-76
2022/07/27 00:12:54;;;;;;;5.80;4.10;;;;;;;16.77;86.65;99885.80;130440;1268;108709;-78
2022/07/27 00:15:59;;;;;;;5.10;4.10;;;;;;;16.74;86.47;99889.61;130410;1266;108691;-78
2022/07/27 00:19:05;;;;;;;5.40;3.90;;;;;;;16.72;86.60;99891.92;130431;1266;108765;-75
2022/07/27 00:22:10;;;;;;;4.90;3.60;;;;;;;16.67;86.91;99897.17;130410;1268;107096;-75
2022/07/27 00:25:16;;;;;;;7.60;3.80;;;;;;;16.64;86.75;99899.94;130569;1268;108234;-75
2022/07/27 00:28:21;;;;;;;5.80;3.30;;;;;;;16.64;86.97;99907.77;130495;1268;108872;-75
2022/07/27 00:31:26;;;;;;;5.00;3.70;;;;;;;16.67;86.95;99905.29;130432;1267;108948;-74
2022/07/27 00:34:32;;;;;;;5.40;3.40;;;;;;;16.68;86.67;99908.33;130407;1268;108787;-80
2022/07/27 00:37:37;;;;;;;3.40;2.90;;;;;;;16.67;86.57;99912.23;130413;1268;108748;-78
2022/07/27 00:40:43;;;;;;;3.50;3.00;;;;;;;16.68;87.09;99916.81;130432;1267;109351;-80
2022/07/27 00:43:57;;;;;;;6.00;3.40;;;;;;;16.68;86.76;99918.44;130544;1267;108813;-81
2022/07/27 00:47:03;;;;;;;4.60;3.60;;;;;;;16.68;86.92;99920.09;130380;1268;108251;-78
2022/07/27 00:50:09;;;;;;;6.30;3.10;;;;;;;16.64;86.69;99921.95;130296;1268;107823;-79
2022/07/27 00:53:15;;;;;;;3.70;2.90;;;;;;;16.62;87.03;99922.23;130307;1268;107487;-79
2022/07/27 00:56:22;;;;;;;3.40;2.60;;;;;;;16.59;86.84;99924.25;130364;1268;108776;-78
2022/07/27 00:59:28;;;;;;;3.90;2.90;;;;;;;16.59;86.79;99925.40;130316;1268;109050;-77
2022/07/27 01:02:34;;;;;;;4.40;3.00;;;;;;;16.58;87.02;99926.80;130290;1268;108856;-77
2022/07/27 01:05:39;;;;;;;3.20;2.60;;;;;;;16.58;86.93;99930.20;130263;1268;106991;-77
2022/07/27 01:08:45;;;;;;;4.00;2.80;;;;;;;16.60;86.80;99930.11;130306;1268;108651;-76
2022/07/27 01:11:50;;;;;;;4.00;3.00;;;;;;;16.62;86.95;99936.08;130297;1268;108775;-77
2022/07/27 01:14:56;;;;;;;4.00;3.00;;;;;;;16.60;86.83;99941.80;130211;1268;108658;-77
2022/07/27 01:18:02;;;;;;;4.30;3.00;;;;;;;16.55;87.01;99941.30;130328;1268;107762;-76
2022/07/27 01:21:09;;;;;;;3.10;2.70;;;;;;;16.53;87.00;99943.06;130283;1268;109021;-77
2022/07/27 01:24:14;;;;;;;4.60;2.80;;;;;;;16.51;86.90;99950.69;130395;1268;108719;-77
2022/07/27 01:27:20;;;;;;;3.50;2.80;;;;;;;16.53;86.75;99957.08;130357;1268;108840;-77
2022/07/27 01:30:29;;;;;;;5.20;3.50;;;;;;;16.53;86.87;99954.21;130376;1268;108806;-74
2022/07/27 01:33:34;;;;;;;4.30;2.70;;;;;;;16.51;86.63;99960.91;130284;1268;108742;-74
2022/07/27 01:36:40;;;;;;;3.00;2.40;;;;;;;16.46;86.89;99965.44;130326;1268;108762;-75
2022/07/27 01:39:45;;;;;;;3.00;2.60;;;;;;;16.44;87.01;99961.20;130346;1268;108852;-74
2022/07/27 01:42:51;;;;;;;4.00;2.80;;;;;;;16.42;86.85;99959.34;130315;1268;108765;-78
2022/07/27 01:45:58;;;;;;;5.10;3.10;;;;;;;16.41;87.18;99963.60;130393;1266;108653;-77
2022/07/27 01:49:04;;;;;;;2.70;2.30;;;;;;;16.36;87.03;99963.40;130467;1268;108686;-77
2022/07/27 01:52:10;;;;;;;3.20;2.30;;;;;;;16.32;87.06;99967.15;130463;1268;108856;-80
2022/07/27 01:55:15;;;;;;;4.50;2.50;;;;;;;16.27;87.00;99967.52;130596;1268;108659;-78
2022/07/27 01:58:21;;;;;;;3.30;2.60;;;;;;;16.21;87.22;99970.64;130539;1266;107339;-78
2022/07/27 02:01:26;;;;;;;3.50;2.50;;;;;;;16.18;86.73;99968.23;130553;1268;108550;-78
2022/07/27 02:04:31;;;;;;;3.20;2.30;;;;;;;16.13;86.85;99970.39;130603;1268;108893;-76
2022/07/27 02:07:37;;;;;;;4.20;2.00;;;;;;;16.10;86.88;99970.61;130473;1266;108777;-76
2022/07/27 02:14:01;;;;;;;3.60;2.30;;;;;;;16.10;86.48;99965.63;130529;1268;108730;-72
2022/07/27 02:17:07;;;;;;;4.50;2.50;;;;;;;16.05;86.23;99973.34;130483;1266;108695;-71
2022/07/27 02:20:14;;;;;;;3.60;2.30;;;;;;;16.00;86.46;99977.27;130418;1267;109149;-72
2022/07/27 02:23:21;;;;;;;4.00;2.00;;;;;;;15.97;86.52;99977.75;130324;1268;108787;-72
2022/07/27 02:26:27;;;;;;;3.60;2.00;;;;;;;15.97;86.65;99977.75;130431;1265;108167;-72
2022/07/27 02:29:32;;;;;;;3.00;2.60;;;;;;;15.98;86.69;99981.44;130384;1266;107591;-73
2022/07/27 02:32:39;;;;;;;4.60;2.60;;;;;;;15.99;86.82;99989.27;130429;1266;108953;-75
2022/07/27 02:35:44;;;;;;;3.30;2.20;;;;;;;15.96;86.59;99988.97;130386;1268;108617;-74
2022/07/27 02:38:50;;;;;;;4.60;2.30;;;;;;;15.91;86.36;99988.84;130391;1266;108959;-75
2022/07/27 02:41:55;;;;;;;2.20;1.80;;;;;;;15.90;86.20;99985.32;130497;1267;109001;-74
2022/07/27 02:45:00;;;;;;;3.30;2.10;;;;;;;15.93;86.05;99988.28;130425;1266;108836;-76
2022/07/27 02:48:06;;;;;;;3.10;2.10;;;;;;;15.93;86.12;99988.53;130382;1268;108980;-76
2022/07/27 02:51:13;;;;;;;2.40;1.90;;;;;;;15.93;86.18;99983.73;130347;1265;108227;-77
2022/07/27 02:54:19;;;;;;;2.60;1.70;;;;;;;15.91;86.25;99989.02;130361;1265;109090;-76
2022/07/27 02:57:24;;;;;;;4.00;2.30;;;;;;;15.92;86.35;99992.48;130409;1266;108884;-78
2022/07/27 03:00:30;;;;;;;4.30;2.10;;;;;;;15.92;86.30;99994.10;130422;1265;108699;-76
2022/07/27 03:03:37;;;;;;;3.40;2.10;;;;;;;15.92;85.94;99994.39;130410;1265;108716;-76
2022/07/27 03:06:42;;;;;;;3.00;2.00;;;;;;;15.88;85.83;100001.16;130366;1266;108766;-76
2022/07/27 03:09:48;;;;;;;2.40;2.00;;;;;;;15.82;85.79;100007.22;130411;1265;108773;-76
2022/07/27 03:12:53;;;;;;;2.80;1.80;;;;;;;15.79;85.87;100010.31;130410;1265;108954;-75
2022/07/27 03:15:59;;;;;;;2.70;1.90;;;;;;;15.76;85.74;100014.05;130419;1265;109051;-76
2022/07/27 03:19:05;;;;;;;3.10;1.80;;;;;;;15.73;85.67;100019.83;130431;1265;108716;-75
2022/07/27 03:22:10;;;;;;;2.90;1.90;;;;;;;15.67;85.53;100022.80;130360;1265;108967;-76
2022/07/27 03:25:15;;;;;;;3.10;1.70;;;;;;;15.62;85.32;100025.96;130419;1265;108709;-76
2022/07/27 03:28:21;;;;;;;5.40;2.00;;;;;;;15.60;85.35;100027.64;130394;1264;108931;-76
2022/07/27 03:31:26;;;;;;;3.20;2.00;;;;;;;15.59;85.15;100031.55;130387;1265;108702;-75
2022/07/27 03:34:32;;;;;;;4.40;1.70;;;;;;;15.57;84.90;100029.50;130387;1265;109046;-76
2022/07/27 03:37:37;;;;;;;2.20;1.70;;;;;;;15.57;84.83;100035.59;130396;1265;108834;-75
2022/07/27 03:40:44;;;;;;;1.80;1.50;;;;;;;15.54;84.64;100036.67;130350;1265;109037;-75
2022/07/27 03:43:49;;;;;;;3.10;1.60;;;;;;;15.53;84.52;100040.05;130438;1265;108850;-75
2022/07/27 03:46:54;;;;;;;2.80;1.60;;;;;;;15.49;83.88;100045.07;130412;1265;108955;-76
2022/07/27 03:50:00;;;;;;;2.80;1.40;;;;;;;15.51;83.79;100047.45;130401;1265;109020;-76
2022/07/27 03:53:05;;;;;;;2.30;1.50;;;;;;;15.53;83.60;100049.88;130391;1265;108221;-76
2022/07/27 03:56:11;;;;;;;3.20;1.50;;;;;;;15.50;83.55;100055.95;130381;1265;107794;-76
2022/07/27 03:59:16;;;;;;;2.70;1.40;;;;;;;15.53;83.56;100058.31;130397;1265;107675;-76
2022/07/27 04:02:21;;;;;;;3.40;1.20;;;;;;;15.64;83.62;100061.06;130304;1266;108742;-77
2022/07/27 04:05:27;;;;;;;2.50;1.30;;;;;;;15.79;83.49;100066.88;130386;1268;108848;-76
2022/07/27 04:08:32;;;;;;;2.00;1.50;;;;;;;16.02;83.47;100067.23;130379;1265;108207;-77
2022/07/27 04:11:38;;;;;;;2.50;1.40;;;;;;;16.23;82.83;100065.00;130466;1265;108854;-77
2022/07/27 04:14:44;;;;;;;2.60;1.20;;;;;;;16.42;82.99;100064.56;130466;1265;108897;-77
2022/07/27 04:17:49;;;;;;;1.90;1.30;;;;;;;16.78;82.11;100060.30;130462;1268;108855;-77
2022/07/27 04:20:54;;;;;;;2.10;1.30;;;;;;;17.10;81.83;100063.17;130508;1265;108752;-77
2022/07/27 04:24:00;;;;;;;2.90;1.50;;;;;;;17.47;81.16;100064.65;130483;1268;108759;-77
2022/07/27 04:27:05;;;;;;;2.50;1.10;;;;;;;17.68;80.55;100061.86;130459;1265;108849;-78
2022/07/27 04:30:13;;;;;;;2.40;1.20;;;;;;;17.95;80.85;100068.01;130602;1268;108671;-79
2022/07/27 04:33:18;;;;;;;3.00;1.20;;;;;;;18.17;79.10;100067.37;130451;1267;108660;-78
2022/07/27 04:36:23;;;;;;;1.60;1.10;;;;;;;18.23;77.86;100069.15;130390;1268;108779;-79
2022/07/27 04:39:29;;;;;;;5.00;1.50;;;;;;;18.23;77.38;100066.23;130436;1265;108930;-78
2022/07/27 04:42:34;;;;;;;3.00;1.20;;;;;;;18.18;76.54;100064.58;130455;1265;108657;-78
2022/07/27 04:45:39;;;;;;;1.80;0.90;;;;;;;18.13;78.00;100059.30;130569;1265;108718;-78
2022/07/27 04:48:45;;;;;;;2.80;1.10;;;;;;;18.19;78.13;100059.92;130548;1265;108788;-78
2022/07/27 04:51:50;;;;;;;1.80;1.00;;;;;;;18.44;78.61;100061.49;130417;1265;109121;-78
2022/07/27 04:54:56;;;;;;;1.80;1.00;;;;;;;18.68;77.01;100062.13;130396;1265;107695;-78
2022/07/27 04:58:01;;;;;;;2.00;1.20;;;;;;;18.78;76.61;100058.98;130463;1265;108873;-78
2022/07/27 05:01:07;;;;;;;2.90;1.30;;;;;;;18.75;76.19;100061.81;130399;1265;108905;-78
2022/07/27 05:04:12;;;;;;;2.40;1.30;;;;;;;18.77;76.02;100059.36;130437;1265;108740;-78
2022/07/27 05:07:17;;;;;;;2.90;1.20;;;;;;;18.79;75.47;100056.90;130399;1268;108744;-78
2022/07/27 05:10:24;;;;;;;4.20;1.10;;;;;;;18.77;75.09;100050.91;130402;1265;108951;-78
2022/07/27 05:13:29;;;;;;;1.80;1.10;;;;;;;18.75;74.20;100056.74;130441;1265;108777;-78
2022/07/27 05:16:35;;;;;;;2.50;1.20;;;;;;;18.69;73.86;100062.45;130449;1267;109123;-78
2022/07/27 05:19:40;;;;;;;1.90;1.10;;;;;;;18.65;75.03;100060.38;130518;1265;108864;-78
2022/07/27 05:22:45;;;;;;;2.40;1.10;;;;;;;18.77;74.90;100060.77;130354;1265;108853;-78
2022/07/27 05:25:51;;;;;;;1.60;0.80;;;;;;;18.91;71.99;100064.42;130389;1265;108761;-78
2022/07/27 05:28:56;;;;;;;3.20;1.10;;;;;;;18.88;72.39;100063.31;130447;1265;108848;-78
2022/07/27 05:32:01;;;;;;;2.60;0.90;;;;;;;18.95;72.85;100064.05;130463;1265;108842;-79
2022/07/27 05:35:09;;;;;;;2.90;1.40;;;;;;;19.01;72.03;100068.22;130579;1265;109017;-78
2022/07/27 05:38:15;;;;;;;2.90;1.00;;;;;;;19.01;71.97;100077.91;130538;1265;108898;-78
2022/07/27 05:41:25;;;;;;;3.50;1.20;;;;;;;18.91;70.44;100078.48;130440;1265;109537;-78
2022/07/27 05:44:31;;;;;;;4.60;1.10;;;;;;;18.75;70.54;100085.77;130379;1265;109863;-78
2022/07/27 05:47:37;;;;;;;3.30;1.30;;;;;;;18.67;69.92;100087.65;130406;1265;108782;-79
2022/07/27 05:50:42;;;;;;;2.40;1.10;;;;;;;18.65;71.19;100088.40;130432;1265;108305;-79
2022/07/27 05:53:48;;;;;;;2.50;1.20;;;;;;;18.69;71.29;100083.58;130388;1265;108743;-78
2022/07/27 05:56:53;;;;;;;3.10;1.40;;;;;;;18.70;70.30;100086.06;130584;1265;108715;-79
2022/07/27 06:00:00;;;;;;;2.90;1.30;;;;;;;18.59;70.66;100087.75;130563;1265;108759;-79
2022/07/27 06:03:05;;;;;;;8.20;1.40;;;;;;;18.57;70.83;100087.50;130380;1268;108877;-78
2022/07/27 06:09:33;;;;;;;3.70;1.40;;;;;;;18.64;69.69;100080.67;130364;1266;107682;-78
2022/07/27 06:12:41;;;;;;;1.70;1.20;;;;;;;18.67;71.09;100084.23;130394;1266;108910;-75
2022/07/27 06:15:46;;;;;;;3.00;1.20;;;;;;;18.85;70.89;100083.52;130325;1268;108858;-78
2022/07/27 06:18:51;;;;;;;3.00;1.20;;;;;;;18.88;68.42;100082.86;130337;1268;108609;-78
2022/07/27 06:21:57;;;;;;;2.90;1.40;;;;;;;18.87;68.87;100084.08;130388;1268;108966;-78
2022/07/27 06:25:02;;;;;;;1.90;1.30;;;;;;;18.80;68.02;100089.32;130357;1266;109013;-78
2022/07/27 06:28:08;;;;;;;2.90;1.50;;;;;;;18.72;68.40;100092.72;130355;1268;108260;-78
2022/07/27 06:31:14;;;;;;;2.00;1.40;;;;;;;18.67;68.06;100093.45;130348;1268;108771;-78
2022/07/27 06:34:19;;;;;;;1.70;1.30;;;;;;;18.59;67.79;100089.32;130420;1267;108784;-78
2022/07/27 06:37:26;;;;;;;2.20;1.60;;;;;;;18.67;68.34;100091.64;130333;1267;108362;-78
2022/07/27 06:40:32;;;;;;;3.00;1.60;;;;;;;18.74;69.20;100089.85;130336;1267;108602;-79
2022/07/27 06:43:37;;;;;;;4.00;1.50;;;;;;;18.84;68.28;100090.52;130543;1265;108538;-78
2022/07/27 06:46:42;;;;;;;3.20;1.30;;;;;;;18.86;66.41;100094.02;130636;1267;108938;-79
2022/07/27 06:49:48;;;;;;;2.60;1.50;;;;;;;18.86;66.75;100095.46;131003;1265;109051;-79
2022/07/27 06:52:53;;;;;;;2.80;1.60;;;;;;;18.97;67.71;100092.20;130504;1267;109033;-78
2022/07/27 06:56:02;;;;;;;4.30;1.80;;;;;;;19.09;67.52;100094.33;130491;1268;108764;-79
2022/07/27 06:59:08;;;;;;;3.20;2.00;;;;;;;19.07;66.19;100092.62;130510;1267;108578;-80
2022/07/27 07:02:16;;;;;;;2.50;1.70;;;;;;;19.14;67.45;100089.11;130328;1268;108771;-79
2022/07/27 07:05:21;;;;;;;2.40;1.70;;;;;;;19.29;67.49;100088.13;130488;1268;107725;-79
2022/07/27 07:08:27;;;;;;;2.80;1.70;;;;;;;19.45;68.25;100084.86;130351;1268;108931;-79
2022/07/27 07:11:32;;;;;;;3.30;1.80;;;;;;;19.60;67.75;100080.50;130391;1268;108505;-79
2022/07/27 07:14:38;;;;;;;3.80;1.80;;;;;;;19.68;66.89;100079.04;130356;1266;107504;-80
2022/07/27 07:17:43;;;;;;;3.30;1.80;;;;;;;19.70;65.24;100073.86;130444;1268;108994;-80
2022/07/27 07:20:48;;;;;;;4.10;1.50;;;;;;;19.74;66.90;100077.73;130715;1268;108738;-79
2022/07/27 07:23:54;;;;;;;3.00;2.00;;;;;;;19.90;67.12;100086.30;130506;1268;107175;-79
2022/07/27 07:27:00;;;;;;;3.40;2.10;;;;;;;19.92;64.91;100087.80;130439;1268;109784;-79
2022/07/27 07:30:06;;;;;;;2.40;1.60;;;;;;;19.94;66.33;100083.69;130318;1267;108981;-79
2022/07/27 07:33:12;;;;;;;3.60;1.80;;;;;;;20.07;66.17;100080.98;130302;1267;105784;-79
2022/07/27 07:36:17;;;;;;;3.50;1.70;;;;;;;20.11;64.60;100074.19;130417;1265;108962;-79
2022/07/27 07:39:22;;;;;;;2.40;1.60;;;;;;;20.12;65.12;100072.43;130402;1265;108904;-79
2022/07/27 07:42:28;;;;;;;2.90;1.90;;;;;;;20.19;64.32;100080.17;130434;1265;108902;-79
2022/07/27 07:45:37;;;;;;;5.10;2.10;;;;;;;20.08;62.48;100083.17;130398;1265;108107;-79
2022/07/27 07:48:43;;;;;;;2.70;1.80;;;;;;;20.05;63.80;100080.91;130396;1265;109141;-79
2022/07/27 07:51:48;;;;;;;3.30;1.80;;;;;;;20.11;62.23;100087.19;130402;1268;108829;-79
2022/07/27 07:54:53;;;;;;;4.40;2.30;;;;;;;20.12;62.59;100091.81;130347;1268;108823;-79
2022/07/27 07:58:00;;;;;;;2.90;2.00;;;;;;;20.08;61.12;100094.92;130390;1265;108468;-79
2022/07/27 08:01:05;;;;;;;3.20;1.90;;;;;;;20.06;61.83;100097.24;130353;1268;108450;-79
2022/07/27 08:04:11;;;;;;;2.90;2.10;;;;;;;20.10;62.03;100100.77;130380;1267;109081;-79
2022/07/27 08:07:16;;;;;;;2.90;1.70;;;;;;;20.18;61.56;100103.17;130357;1266;108737;-79
2022/07/27 08:10:23;;;;;;;3.10;1.90;;;;;;;20.30;61.36;100105.21;130345;1268;108860;-79
2022/07/27 08:13:28;;;;;;;3.00;1.70;;;;;;;20.35;60.66;100103.39;130363;1267;109726;-79
2022/07/27 08:16:34;;;;;;;2.40;1.60;;;;;;;20.30;59.06;100109.59;130349;1267;107069;-79
2022/07/27 08:19:39;;;;;;;3.60;1.70;;;;;;;20.32;61.36;100101.70;130376;1268;109038;-79
2022/07/27 08:22:45;;;;;;;3.60;1.30;;;;;;;20.45;59.83;100106.97;130340;1267;108880;-79
2022/07/27 08:25:50;;;;;;;4.00;1.30;;;;;;;20.51;59.68;100111.89;130352;1268;109164;-79
2022/07/27 08:28:56;;;;;;;3.00;1.40;;;;;;;20.78;60.21;100110.41;130377;1267;108879;-79
2022/07/27 08:32:01;;;;;;;3.80;1.30;;;;;;;21.09;57.90;100110.13;130391;1268;109021;-79
2022/07/27 08:35:07;;;;;;;3.10;1.20;;;;;;;20.95;58.25;100112.33;130362;1268;108890;-79
2022/07/27 08:38:13;;;;;;;2.80;1.30;;;;;;;21.12;59.89;100116.95;130418;1266;109135;-79
2022/07/27 08:41:22;;;;;;;1.90;1.00;;;;;;;21.48;60.69;100117.52;130448;1266;108664;-79
2022/07/27 08:44:28;;;;;;;3.00;1.30;;;;;;;21.93;60.87;100116.55;130435;1268;108872;-79
2022/07/27 08:47:35;;;;;;;3.40;1.10;;;;;;;22.14;59.11;100116.30;130351;1267;108764;-79
2022/07/27 08:50:41;;;;;;;2.40;1.10;;;;;;;21.97;57.31;100122.39;130413;1268;108014;-80
2022/07/27 08:53:47;;;;;;;2.90;1.30;;;;;;;21.88;58.77;100122.28;130510;1268;107136;-79
2022/07/27 08:56:53;;;;;;;2.00;1.20;;;;;;;22.00;56.80;100118.88;130377;1268;107126;-79
2022/07/27 08:59:58;;;;;;;4.50;1.30;;;;;;;21.98;56.87;100115.36;130471;1267;107543;-79
2022/07/27 09:03:04;;;;;;;1.80;1.00;;;;;;;22.13;58.17;100115.86;130398;1268;109015;-79
2022/07/27 09:06:09;;;;;;;2.60;1.00;;;;;;;22.41;57.19;100113.91;130410;1268;109007;-79
2022/07/27 09:09:16;;;;;;;2.20;1.00;;;;;;;22.57;57.71;100109.23;130354;1267;108579;-79
2022/07/27 09:12:28;;;;;;;3.10;1.30;;;;;;;22.54;54.08;100105.80;130390;1267;107245;-79
2022/07/27 09:15:34;;;;;;;3.40;1.10;;;;;;;22.20;54.13;100110.69;130449;1267;108768;-79
2022/07/27 09:18:40;;;;;;;3.60;1.00;;;;;;;22.13;56.34;100112.38;130404;1266;107467;-80
2022/07/27 09:21:46;;;;;;;2.10;0.80;;;;;;;22.55;57.17;100116.30;130420;1268;108579;-79
2022/07/27 09:25:04;;;;;;;3.50;1.10;;;;;;;22.91;54.40;100115.29;130406;1268;108583;-79
2022/07/27 09:28:10;;;;;;;2.70;1.10;;;;;;;22.80;53.18;100115.97;130424;1268;109777;-79
2022/07/27 09:31:16;;;;;;;4.20;1.20;;;;;;;22.61;54.15;100115.51;130336;1268;108854;-83
2022/07/27 09:34:32;;;;;;;2.70;1.10;;;;;;;22.54;53.98;100119.27;130408;1268;108738;-80
2022/07/27 09:37:37;;;;;;;2.40;1.20;;;;;;;22.42;53.43;100116.63;130396;1268;108196;-77
2022/07/27 09:40:44;;;;;;;1.60;0.90;;;;;;;22.49;54.79;100114.96;130378;1266;108551;-80
2022/07/27 09:43:52;;;;;;;3.80;1.20;;;;;;;22.62;53.23;100114.12;130450;1268;108587;-78
2022/07/27 09:46:57;;;;;;;2.80;1.00;;;;;;;22.58;52.57;100117.53;130402;1266;108554;-81
2022/07/27 09:50:20;;;;;;;3.20;1.10;;;;;;;22.93;54.91;100112.51;130356;1268;107608;-81
2022/07/27 09:53:27;;;;;;;2.00;0.90;;;;;;;23.44;54.89;100104.84;130087;1267;308749;-79
2022/07/27 09:56:33;;;;;;;2.50;0.80;;;;;;;23.72;54.12;100111.97;130343;1266;108697;-80
2022/07/27 09:59:38;;;;;;;1.50;0.90;;;;;;;23.62;51.75;100117.23;130347;1267;108744;-79
2022/07/27 10:02:44;;;;;;;1.40;0.70;;;;;;;23.28;53.65;100110.77;130392;1267;107185;-78
2022/07/27 10:05:50;;;;;;;2.40;0.90;;;;;;;23.39;52.46;100111.05;130378;1268;109110;-77
2022/07/27 10:08:57;;;;;;;4.80;1.00;;;;;;;23.13;51.76;100110.52;130397;1268;108811;-79
2022/07/27 10:12:03;;;;;;;3.30;1.10;;;;;;;22.85;50.69;100110.80;130389;1267;108768;-78
2022/07/27 10:15:11;;;;;;;2.30;0.90;;;;;;;22.65;53.06;100109.87;130357;1268;108931;-80
2022/07/27 10:18:27;;;;;;;1.90;0.90;;;;;;;22.74;53.11;100106.79;130406;1267;108769;-79
2022/07/27 10:21:34;;;;;;;2.60;0.80;;;;;;;22.78;53.50;100108.18;130390;1267;108709;-78
2022/07/27 10:24:40;;;;;;;2.00;1.00;;;;;;;22.81;52.64;100113.05;130451;1267;108988;-78
2022/07/27 10:27:48;;;;;;;2.20;1.00;;;;;;;22.70;51.87;100112.37;130363;1268;108778;-78
2022/07/27 10:31:14;;;;;;;1.90;0.80;;;;;;;22.69;52.48;100111.14;130420;1268;108806;-78
2022/07/27 10:34:35;;;;;;;1.80;0.80;;;;;;;22.71;51.25;100112.94;130387;1268;108817;-78
2022/07/27 10:37:40;;;;;;;2.60;1.00;;;;;;;22.74;51.53;100112.13;130402;1266;107660;-78
2022/07/27 10:40:47;;;;;;;2.10;1.00;;;;;;;22.72;51.87;100108.77;130388;1266;108733;-78
2022/07/27 10:47:50;;;;;;;2.80;0.90;;;;;;;23.05;52.30;100104.09;125886;1310;636197;-79
2022/07/27 10:50:56;;;;;;;2.20;1.00;;;;;;;23.02;51.51;100111.89;129283;1281;108717;-79
2022/07/27 10:54:21;;;;;;;2.40;0.80;;;;;;;23.02;52.02;100106.06;129172;1281;108861;-79
2022/07/27 10:57:29;;;;;;;3.80;0.90;;;;;;;23.19;51.38;100106.39;129175;1280;108740;-79
2022/07/27 11:01:01;;;;;;;2.20;0.90;;;;;;;23.03;50.69;100106.35;129070;1280;285111;-79
2022/07/27 11:04:09;;;;;;;;;;;;;;;23.02;50.54;100106.40;129364;1280;108871;-80
2022/07/27 11:07:18;;;;;;;2.60;0.90;;;;;;;23.07;51.42;100109.08;129492;1280;108721;-79
2022/07/27 11:10:25;;;;;;;2.20;1.10;;;;;;;23.19;50.59;100112.92;129368;1279;108686;-79
2022/07/27 11:13:31;;;;;;;4.20;0.90;;;;;;;23.22;50.97;100114.02;129362;1281;108616;-79
2022/07/27 11:16:38;;;;;;;2.10;0.80;;;;;;;23.24;50.19;100107.95;129303;1281;108769;-79
2022/07/27 11:19:44;;;;;;;2.00;0.90;;;;;;;23.13;50.18;100108.71;129355;1280;108868;-79
2022/07/27 11:22:49;;;;;;;3.20;1.00;;;;;;;23.07;50.61;100102.94;129143;1281;109022;-79
2022/07/27 11:26:01;;;;;;;1.80;1.00;;;;;;;23.12;50.56;100103.71;129697;1278;108677;-79
2022/07/27 11:29:10;;;;;;;1.60;0.70;;;;;;;23.17;50.84;100101.45;129698;1276;108515;-79
2022/07/27 11:32:20;;;;;;;2.90;0.90;;;;;;;23.39;51.04;100100.05;129658;1277;108996;-79
2022/07/27 11:35:26;;;;;;;2.70;0.80;;;;;;;23.45;49.71;100100.73;129698;1275;109026;-79
2022/07/27 11:38:44;;;;;;;2.60;0.80;;;;;;;23.28;50.21;100101.41;129651;1278;108698;-80
2022/07/27 11:41:49;;;;;;;2.00;1.00;;;;;;;23.20;49.92;100105.06;129624;1277;108141;-80
2022/07/27 11:44:54;;;;;;;2.10;1.00;;;;;;;23.11;50.09;100108.68;129572;1277;108682;-78
2022/07/27 11:48:00;;;;;;;1.90;0.90;;;;;;;23.16;50.71;100106.05;130548;1271;109005;-79
2022/07/27 11:51:06;;;;;;;2.40;0.80;;;;;;;23.25;50.53;100109.78;130087;1271;108709;-79
2022/07/27 11:54:17;;;;;;;2.50;0.80;;;;;;;23.43;50.28;100100.78;130097;1271;107825;-79
2022/07/27 11:57:30;;;;;;;;;;;;;;;23.56;49.77;100105.11;130377;1271;108714;-78
2022/07/27 12:00:43;;;;;;;2.30;0.70;;;;;;;23.49;48.98;100105.98;129971;1271;108678;-79
2022/07/27 12:03:49;;;;;;;2.30;0.90;;;;;;;23.13;48.83;100109.26;130065;1271;108640;-79
2022/07/27 12:07:02;;;;;;;1.50;0.80;;;;;;;22.96;48.85;100105.26;129908;1271;109022;-79
2022/07/27 12:10:10;;;;;;;3.90;0.80;;;;;;;22.78;48.76;100098.39;130168;1271;108684;-78
2022/07/27 12:13:20;;;;;;;1.40;0.70;;;;;;;22.70;49.43;100105.46;130023;1271;108695;-78
2022/07/27 12:16:26;;;;;;;1.80;0.80;;;;;;;22.66;49.87;100098.68;129836;1271;108985;-77
2022/07/27 12:19:32;;;;;;;1.60;0.70;;;;;;;22.74;50.23;100092.16;130117;1271;107536;-78
2022/07/27 12:22:42;;;;;;;2.40;0.80;;;;;;;22.98;50.48;100093.46;130223;1271;107880;-77
2022/07/27 12:25:48;;;;;;;2.40;0.80;;;;;;;23.07;49.55;100096.58;130042;1271;109149;-79
2022/07/27 12:29:08;;;;;;;1.40;0.70;;;;;;;23.09;49.83;100104.02;129996;1271;108679;-77
2022/07/27 12:32:14;;;;;;;1.30;0.80;;;;;;;23.14;48.98;100096.27;130034;1271;108612;-79
2022/07/27 12:35:23;;;;;;;1.90;0.80;;;;;;;23.10;48.58;100093.30;130101;1271;108695;-78
2022/07/27 12:38:38;;;;;;;2.10;0.80;;;;;;;23.05;49.17;100085.02;130096;1271;108922;-78
2022/07/27 12:41:44;;;;;;;2.70;1.10;;;;;;;23.20;48.66;100089.54;129975;1271;108773;-77
2022/07/27 12:44:52;;;;;;;1.50;0.90;;;;;;;23.17;48.99;100091.97;130229;1271;108762;-77
2022/07/27 12:48:06;;;;;;;2.20;0.80;;;;;;;23.20;48.89;100086.05;130304;1271;108909;-77
2022/07/27 12:51:12;;;;;;;1.50;0.80;;;;;;;23.35;48.17;100086.63;130058;1271;108652;-77
2022/07/27 12:54:17;;;;;;;1.80;0.90;;;;;;;23.27;47.63;100085.23;130053;1271;108846;-78
2022/07/27 12:57:23;;;;;;;1.40;0.70;;;;;;;23.30;49.39;100086.06;130186;1271;108629;-77
2022/07/27 13:00:30;;;;;;;1.90;0.80;;;;;;;23.57;48.93;100083.52;130249;1271;108948;-78
2022/07/27 13:03:36;;;;;;;2.10;0.60;;;;;;;23.70;49.15;100077.32;130099;1269;108589;-78
2022/07/27 13:06:41;;;;;;;1.20;0.80;;;;;;;23.78;48.91;100068.59;130140;1271;108668;-78
2022/07/27 13:09:46;;;;;;;2.10;0.90;;;;;;;23.73;47.75;100069.16;130236;1271;108774;-78
2022/07/27 13:12:53;;;;;;;2.00;0.80;;;;;;;23.45;47.83;100065.30;130597;1271;108979;-79
2022/07/27 13:15:58;;;;;;;1.60;0.90;;;;;;;23.27;48.26;100066.55;130340;1271;109215;-79
2022/07/27 13:19:04;;;;;;;1.80;1.00;;;;;;;23.27;48.65;100065.89;130975;1271;108950;-79
2022/07/27 13:22:09;;;;;;;2.20;0.90;;;;;;;23.25;48.45;100064.48;130834;1271;108851;-79
2022/07/27 13:25:16;;;;;;;2.20;0.90;;;;;;;23.16;48.23;100065.51;130791;1271;109145;-79
2022/07/27 13:28:21;;;;;;;1.80;1.00;;;;;;;23.17;48.89;100063.71;130306;1271;108910;-78
2022/07/27 13:31:27;;;;;;;1.80;0.70;;;;;;;23.29;48.51;100069.69;130408;1271;108946;-79
2022/07/27 13:34:33;;;;;;;1.50;0.90;;;;;;;23.31;48.52;100068.35;130246;1271;108852;-80
2022/07/27 13:37:38;;;;;;;1.40;0.70;;;;;;;23.18;48.60;100067.71;130407;1271;109644;-79
2022/07/27 13:40:44;;;;;;;2.30;0.90;;;;;;;23.27;48.82;100064.52;130408;1271;108742;-79
2022/07/27 13:43:50;;;;;;;1.30;0.80;;;;;;;23.40;48.42;100054.10;130558;1271;108863;-79
2022/07/27 13:46:55;;;;;;;0.80;0.60;;;;;;;23.59;48.89;100057.52;130414;1271;107744;-78
2022/07/27 13:50:02;;;;;;;1.70;0.70;;;;;;;23.70;47.78;100055.59;130325;1271;108722;-79
2022/07/27 13:53:07;;;;;;;1.80;0.90;;;;;;;23.71;48.07;100054.15;130323;1271;108803;-78
2022/07/27 13:56:13;;;;;;;1.70;0.80;;;;;;;23.68;48.32;100054.52;130333;1270;108951;-79
2022/07/27 13:59:18;;;;;;;1.20;0.80;;;;;;;23.70;48.27;100051.50;130295;1271;109170;-78
2022/07/27 14:02:24;;;;;;;1.40;0.70;;;;;;;23.63;48.27;100057.85;129996;1271;107624;-78
2022/07/27 14:05:30;;;;;;;1.60;0.90;;;;;;;23.48;48.13;100062.33;130094;1271;108647;-78
2022/07/27 14:08:35;;;;;;;1.80;0.80;;;;;;;23.29;48.60;100059.49;130033;1271;108738;-78
2022/07/27 14:11:47;;;;;;;1.00;0.80;;;;;;;23.20;48.88;100066.34;130153;1271;108852;-79
2022/07/27 14:14:56;;;;;;;1.40;0.80;;;;;;;23.14;48.65;100067.70;130292;1268;107788;-78
2022/07/27 14:18:01;;;;;;;1.60;0.90;;;;;;;23.00;48.82;100069.73;130284;1268;108687;-79
2022/07/27 14:21:08;;;;;;;1.80;0.90;;;;;;;22.86;48.73;100072.08;130294;1268;108712;-81